sensor_id;sensor_type;location;lat;lon;timestamp;P1;durP1;ratioP1;P2;durP2;ratioP2
32094;SDS011;18608;53.688;10.748;2022-07-04T00:00:22;5.37;;;3.87;;
32094;SDS011;18608;53.688;10.748;2022-07-04T00:02:48;4.63;;;4.13;;
32094;SDS011;18608;53.688;10.748;2022-07-04T00:05:15;4.10;;;3.80;;
32094;SDS011;18608;53.688;10.748;2022-07-04T00:07:43;4.20;;;3.70;;
32094;SDS011;18608;53.688;10.748;2022-07-04T00:10:10;4.50;;;4.10;;
32094;SDS011;18608;53.688;10.748;2022-07-04T00:12:38;8.40;;;4.80;;
32094;SDS011;18608;53.688;10.748;2022-07-04T00:15:04;5.50;;;5.00;;
32094;SDS011;18608;53.688;10.748;2022-07-04T00:17:30;6.67;;;4.37;;
32094;SDS011;18608;53.688;10.748;2022-07-04T00:19:56;4.47;;;4.07;;
32094;SDS011;18608;53.688;10.748;2022-07-04T00:22:22;4.90;;;4.37;;
32094;SDS011;18608;53.688;10.748;2022-07-04T00:24:48;5.17;;;4.73;;
32094;SDS011;18608;53.688;10.748;2022-07-04T00:27:13;6.80;;;4.20;;
32094;SDS011;18608;53.688;10.748;2022-07-04T00:29:39;10.90;;;4.40;;
32094;SDS011;18608;53.688;10.748;2022-07-04T00:32:05;8.37;;;4.77;;
32094;SDS011;18608;53.688;10.748;2022-07-04T00:34:31;5.23;;;4.13;;
32094;SDS011;18608;53.688;10.748;2022-07-04T00:36:57;5.00;;;4.60;;
32094;SDS011;18608;53.688;10.748;2022-07-04T00:39:22;5.30;;;4.30;;
32094;SDS011;18608;53.688;10.748;2022-07-04T00:41:48;4.47;;;4.03;;
32094;SDS011;18608;53.688;10.748;2022-07-04T00:44:14;5.00;;;4.10;;
32094;SDS011;18608;53.688;10.748;2022-07-04T00:46:43;4.53;;;4.13;;
32094;SDS011;18608;53.688;10.748;2022-07-04T00:49:10;8.13;;;4.90;;
32094;SDS011;18608;53.688;10.748;2022-07-04T00:51:37;11.43;;;5.10;;
32094;SDS011;18608;53.688;10.748;2022-07-04T00:54:04;6.20;;;4.80;;
32094;SDS011;18608;53.688;10.748;2022-07-04T00:56:31;4.87;;;4.20;;
32094;SDS011;18608;53.688;10.748;2022-07-04T00:58:59;5.60;;;4.50;;
32094;SDS011;18608;53.688;10.748;2022-07-04T01:01:25;5.93;;;4.20;;
32094;SDS011;18608;53.688;10.748;2022-07-04T01:03:51;6.93;;;4.90;;
32094;SDS011;18608;53.688;10.748;2022-07-04T01:06:17;6.53;;;4.57;;
32094;SDS011;18608;53.688;10.748;2022-07-04T01:08:44;5.63;;;5.03;;
32094;SDS011;18608;53.688;10.748;2022-07-04T01:11:11;13.53;;;4.57;;
32094;SDS011;18608;53.688;10.748;2022-07-04T01:13:37;7.97;;;4.50;;
32094;SDS011;18608;53.688;10.748;2022-07-04T01:16:03;6.00;;;5.30;;
32094;SDS011;18608;53.688;10.748;2022-07-04T01:18:30;11.17;;;4.83;;
32094;SDS011;18608;53.688;10.748;2022-07-04T01:20:56;11.03;;;4.33;;
32094;SDS011;18608;53.688;10.748;2022-07-04T01:23:21;12.20;;;5.20;;
32094;SDS011;18608;53.688;10.748;2022-07-04T01:25:47;5.13;;;4.20;;
32094;SDS011;18608;53.688;10.748;2022-07-04T01:28:15;6.33;;;4.67;;
32094;SDS011;18608;53.688;10.748;2022-07-04T01:30:41;10.50;;;5.13;;
32094;SDS011;18608;53.688;10.748;2022-07-04T01:33:07;6.53;;;4.70;;
32094;SDS011;18608;53.688;10.748;2022-07-04T01:35:32;8.07;;;4.77;;
32094;SDS011;18608;53.688;10.748;2022-07-04T01:38:01;5.07;;;4.57;;
32094;SDS011;18608;53.688;10.748;2022-07-04T01:40:27;7.07;;;5.23;;
32094;SDS011;18608;53.688;10.748;2022-07-04T01:42:53;9.63;;;5.03;;
32094;SDS011;18608;53.688;10.748;2022-07-04T01:45:18;14.00;;;5.80;;
32094;SDS011;18608;53.688;10.748;2022-07-04T01:47:44;7.10;;;5.97;;
32094;SDS011;18608;53.688;10.748;2022-07-04T01:50:10;8.37;;;5.40;;
32094;SDS011;18608;53.688;10.748;2022-07-04T01:52:39;8.67;;;5.70;;
32094;SDS011;18608;53.688;10.748;2022-07-04T01:55:09;6.37;;;5.47;;
32094;SDS011;18608;53.688;10.748;2022-07-04T01:57:35;7.57;;;6.30;;
32094;SDS011;18608;53.688;10.748;2022-07-04T02:00:02;16.73;;;6.37;;
32094;SDS011;18608;53.688;10.748;2022-07-04T02:02:50;15.80;;;6.10;;
32094;SDS011;18608;53.688;10.748;2022-07-04T02:05:16;12.13;;;5.47;;
32094;SDS011;18608;53.688;10.748;2022-07-04T02:07:42;15.53;;;6.33;;
32094;SDS011;18608;53.688;10.748;2022-07-04T02:10:09;13.70;;;6.30;;
32094;SDS011;18608;53.688;10.748;2022-07-04T02:12:35;9.87;;;6.90;;
32094;SDS011;18608;53.688;10.748;2022-07-04T02:15:19;11.53;;;6.70;;
32094;SDS011;18608;53.688;10.748;2022-07-04T02:17:44;13.17;;;7.93;;
32094;SDS011;18608;53.688;10.748;2022-07-04T02:20:11;7.83;;;6.40;;
32094;SDS011;18608;53.688;10.748;2022-07-04T02:22:37;10.73;;;7.10;;
32094;SDS011;18608;53.688;10.748;2022-07-04T02:25:03;15.60;;;8.20;;
32094;SDS011;18608;53.688;10.748;2022-07-04T02:27:29;9.40;;;6.83;;
32094;SDS011;18608;53.688;10.748;2022-07-04T02:29:54;12.13;;;7.93;;
32094;SDS011;18608;53.688;10.748;2022-07-04T02:32:20;10.70;;;7.50;;
32094;SDS011;18608;53.688;10.748;2022-07-04T02:34:46;14.83;;;9.63;;
32094;SDS011;18608;53.688;10.748;2022-07-04T02:37:11;18.03;;;9.33;;
32094;SDS011;18608;53.688;10.748;2022-07-04T02:39:37;16.03;;;8.50;;
32094;SDS011;18608;53.688;10.748;2022-07-04T02:42:03;18.73;;;9.90;;
32094;SDS011;18608;53.688;10.748;2022-07-04T02:44:29;15.13;;;10.03;;
32094;SDS011;18608;53.688;10.748;2022-07-04T02:46:55;32.07;;;9.00;;
32094;SDS011;18608;53.688;10.748;2022-07-04T02:49:21;15.47;;;10.00;;
32094;SDS011;18608;53.688;10.748;2022-07-04T02:51:46;20.73;;;10.60;;
32094;SDS011;18608;53.688;10.748;2022-07-04T02:54:12;17.70;;;9.70;;
32094;SDS011;18608;53.688;10.748;2022-07-04T02:56:37;14.80;;;8.90;;
32094;SDS011;18608;53.688;10.748;2022-07-04T02:59:03;20.53;;;11.20;;
32094;SDS011;18608;53.688;10.748;2022-07-04T03:01:29;18.00;;;9.60;;
32094;SDS011;18608;53.688;10.748;2022-07-04T03:03:55;25.53;;;14.27;;
32094;SDS011;18608;53.688;10.748;2022-07-04T03:06:20;15.37;;;10.60;;
32094;SDS011;18608;53.688;10.748;2022-07-04T03:08:46;17.27;;;10.00;;
32094;SDS011;18608;53.688;10.748;2022-07-04T03:11:11;20.10;;;11.00;;
32094;SDS011;18608;53.688;10.748;2022-07-04T03:13:40;21.77;;;10.87;;
32094;SDS011;18608;53.688;10.748;2022-07-04T03:16:06;17.60;;;11.60;;
32094;SDS011;18608;53.688;10.748;2022-07-04T03:18:32;22.37;;;12.70;;
32094;SDS011;18608;53.688;10.748;2022-07-04T03:20:57;33.37;;;11.60;;
32094;SDS011;18608;53.688;10.748;2022-07-04T03:23:23;20.37;;;11.47;;
32094;SDS011;18608;53.688;10.748;2022-07-04T03:25:49;22.83;;;12.70;;
32094;SDS011;18608;53.688;10.748;2022-07-04T03:28:15;17.60;;;11.50;;
32094;SDS011;18608;53.688;10.748;2022-07-04T03:30:41;22.40;;;11.03;;
32094;SDS011;18608;53.688;10.748;2022-07-04T03:33:07;16.87;;;11.23;;
32094;SDS011;18608;53.688;10.748;2022-07-04T03:35:33;17.33;;;11.57;;
32094;SDS011;18608;53.688;10.748;2022-07-04T03:37:58;19.40;;;11.70;;
32094;SDS011;18608;53.688;10.748;2022-07-04T03:40:24;24.93;;;12.07;;
32094;SDS011;18608;53.688;10.748;2022-07-04T03:42:53;18.03;;;12.20;;
32094;SDS011;18608;53.688;10.748;2022-07-04T03:45:18;26.77;;;12.47;;
32094;SDS011;18608;53.688;10.748;2022-07-04T03:47:44;17.47;;;11.93;;
32094;SDS011;18608;53.688;10.748;2022-07-04T03:50:09;21.23;;;12.47;;
32094;SDS011;18608;53.688;10.748;2022-07-04T03:52:35;19.23;;;10.90;;
32094;SDS011;18608;53.688;10.748;2022-07-04T03:55:01;12.73;;;10.70;;
32094;SDS011;18608;53.688;10.748;2022-07-04T03:57:27;21.77;;;9.93;;
32094;SDS011;18608;53.688;10.748;2022-07-04T03:59:52;17.43;;;10.17;;
32094;SDS011;18608;53.688;10.748;2022-07-04T04:02:18;14.90;;;9.40;;
32094;SDS011;18608;53.688;10.748;2022-07-04T04:04:43;15.63;;;9.40;;
32094;SDS011;18608;53.688;10.748;2022-07-04T04:07:35;17.97;;;10.13;;
32094;SDS011;18608;53.688;10.748;2022-07-04T04:10:01;19.77;;;9.33;;
32094;SDS011;18608;53.688;10.748;2022-07-04T04:12:27;14.97;;;9.63;;
32094;SDS011;18608;53.688;10.748;2022-07-04T04:14:52;12.90;;;8.73;;
32094;SDS011;18608;53.688;10.748;2022-07-04T04:17:18;21.40;;;8.67;;
32094;SDS011;18608;53.688;10.748;2022-07-04T04:19:44;9.90;;;8.30;;
32094;SDS011;18608;53.688;10.748;2022-07-04T04:22:10;17.53;;;9.00;;
32094;SDS011;18608;53.688;10.748;2022-07-04T04:24:35;14.77;;;8.40;;
32094;SDS011;18608;53.688;10.748;2022-07-04T04:27:01;12.10;;;8.60;;
32094;SDS011;18608;53.688;10.748;2022-07-04T04:29:26;16.30;;;8.20;;
32094;SDS011;18608;53.688;10.748;2022-07-04T04:31:52;16.90;;;8.10;;
32094;SDS011;18608;53.688;10.748;2022-07-04T04:34:18;14.37;;;7.17;;
32094;SDS011;18608;53.688;10.748;2022-07-04T04:36:43;17.40;;;9.57;;
32094;SDS011;18608;53.688;10.748;2022-07-04T04:39:09;13.57;;;7.30;;
32094;SDS011;18608;53.688;10.748;2022-07-04T04:41:34;12.83;;;6.23;;
32094;SDS011;18608;53.688;10.748;2022-07-04T04:44:00;8.60;;;6.23;;
32094;SDS011;18608;53.688;10.748;2022-07-04T04:46:26;12.67;;;7.23;;
32094;SDS011;18608;53.688;10.748;2022-07-04T04:48:52;9.73;;;6.17;;
32094;SDS011;18608;53.688;10.748;2022-07-04T04:51:18;11.80;;;6.40;;
32094;SDS011;18608;53.688;10.748;2022-07-04T04:53:44;8.57;;;5.43;;
32094;SDS011;18608;53.688;10.748;2022-07-04T04:56:10;7.27;;;5.83;;
32094;SDS011;18608;53.688;10.748;2022-07-04T04:58:36;11.63;;;6.27;;
32094;SDS011;18608;53.688;10.748;2022-07-04T05:01:02;11.47;;;5.47;;
32094;SDS011;18608;53.688;10.748;2022-07-04T05:03:28;14.33;;;6.03;;
32094;SDS011;18608;53.688;10.748;2022-07-04T05:05:54;7.10;;;6.40;;
32094;SDS011;18608;53.688;10.748;2022-07-04T05:08:20;8.37;;;5.60;;
32094;SDS011;18608;53.688;10.748;2022-07-04T05:10:49;9.10;;;5.67;;
32094;SDS011;18608;53.688;10.748;2022-07-04T05:13:15;7.73;;;5.67;;
32094;SDS011;18608;53.688;10.748;2022-07-04T05:15:41;5.70;;;4.50;;
32094;SDS011;18608;53.688;10.748;2022-07-04T05:18:07;13.43;;;5.47;;
32094;SDS011;18608;53.688;10.748;2022-07-04T05:20:33;9.03;;;5.60;;
32094;SDS011;18608;53.688;10.748;2022-07-04T05:22:59;6.50;;;4.50;;
32094;SDS011;18608;53.688;10.748;2022-07-04T05:25:25;8.97;;;4.30;;
32094;SDS011;18608;53.688;10.748;2022-07-04T05:27:51;9.30;;;4.77;;
32094;SDS011;18608;53.688;10.748;2022-07-04T05:30:17;7.67;;;4.13;;
32094;SDS011;18608;53.688;10.748;2022-07-04T05:32:43;11.93;;;4.80;;
32094;SDS011;18608;53.688;10.748;2022-07-04T05:35:09;3.77;;;3.47;;
32094;SDS011;18608;53.688;10.748;2022-07-04T05:37:35;5.63;;;4.40;;
32094;SDS011;18608;53.688;10.748;2022-07-04T05:40:02;12.83;;;4.53;;
32094;SDS011;18608;53.688;10.748;2022-07-04T05:42:28;4.00;;;3.60;;
32094;SDS011;18608;53.688;10.748;2022-07-04T05:44:54;7.10;;;4.30;;
32094;SDS011;18608;53.688;10.748;2022-07-04T05:47:20;5.50;;;3.00;;
32094;SDS011;18608;53.688;10.748;2022-07-04T05:49:50;8.73;;;5.30;;
32094;SDS011;18608;53.688;10.748;2022-07-04T05:52:16;7.00;;;3.03;;
32094;SDS011;18608;53.688;10.748;2022-07-04T05:54:42;6.80;;;3.77;;
32094;SDS011;18608;53.688;10.748;2022-07-04T05:57:08;5.87;;;3.17;;
32094;SDS011;18608;53.688;10.748;2022-07-04T05:59:34;3.63;;;2.80;;
32094;SDS011;18608;53.688;10.748;2022-07-04T06:02:00;8.53;;;3.77;;
32094;SDS011;18608;53.688;10.748;2022-07-04T06:04:26;3.40;;;3.10;;
32094;SDS011;18608;53.688;10.748;2022-07-04T06:06:52;4.37;;;2.83;;
32094;SDS011;18608;53.688;10.748;2022-07-04T06:09:18;4.90;;;3.10;;
32094;SDS011;18608;53.688;10.748;2022-07-04T06:11:44;2.33;;;2.23;;
32094;SDS011;18608;53.688;10.748;2022-07-04T06:14:10;4.50;;;2.33;;
32094;SDS011;18608;53.688;10.748;2022-07-04T06:16:36;2.80;;;2.30;;
32094;SDS011;18608;53.688;10.748;2022-07-04T06:19:02;3.10;;;2.20;;
32094;SDS011;18608;53.688;10.748;2022-07-04T06:21:28;3.87;;;2.27;;
32094;SDS011;18608;53.688;10.748;2022-07-04T06:23:54;8.47;;;3.20;;
32094;SDS011;18608;53.688;10.748;2022-07-04T06:26:20;3.87;;;2.40;;
32094;SDS011;18608;53.688;10.748;2022-07-04T06:28:45;4.90;;;1.67;;
32094;SDS011;18608;53.688;10.748;2022-07-04T06:31:12;7.90;;;2.20;;
32094;SDS011;18608;53.688;10.748;2022-07-04T06:33:38;4.23;;;1.60;;
32094;SDS011;18608;53.688;10.748;2022-07-04T06:36:22;6.90;;;2.00;;
32094;SDS011;18608;53.688;10.748;2022-07-04T06:38:49;2.60;;;1.77;;
32094;SDS011;18608;53.688;10.748;2022-07-04T06:41:15;4.83;;;1.73;;
32094;SDS011;18608;53.688;10.748;2022-07-04T06:43:40;4.53;;;1.70;;
32094;SDS011;18608;53.688;10.748;2022-07-04T06:46:07;7.87;;;2.00;;
32094;SDS011;18608;53.688;10.748;2022-07-04T06:48:33;3.33;;;1.47;;
32094;SDS011;18608;53.688;10.748;2022-07-04T06:50:59;3.43;;;1.63;;
32094;SDS011;18608;53.688;10.748;2022-07-04T06:53:24;3.77;;;1.73;;
32094;SDS011;18608;53.688;10.748;2022-07-04T06:55:50;12.03;;;1.90;;
32094;SDS011;18608;53.688;10.748;2022-07-04T06:58:15;5.10;;;1.50;;
32094;SDS011;18608;53.688;10.748;2022-07-04T07:00:41;8.03;;;1.70;;
32094;SDS011;18608;53.688;10.748;2022-07-04T07:03:08;5.43;;;1.90;;
32094;SDS011;18608;53.688;10.748;2022-07-04T07:05:34;1.50;;;1.40;;
32094;SDS011;18608;53.688;10.748;2022-07-04T07:08:02;6.10;;;1.83;;
32094;SDS011;18608;53.688;10.748;2022-07-04T07:10:29;6.10;;;1.90;;
32094;SDS011;18608;53.688;10.748;2022-07-04T07:12:57;5.97;;;2.03;;
32094;SDS011;18608;53.688;10.748;2022-07-04T07:15:23;2.80;;;1.77;;
32094;SDS011;18608;53.688;10.748;2022-07-04T07:17:49;1.87;;;1.60;;
32094;SDS011;18608;53.688;10.748;2022-07-04T07:20:15;1.57;;;1.20;;
32094;SDS011;18608;53.688;10.748;2022-07-04T07:22:41;1.97;;;1.30;;
32094;SDS011;18608;53.688;10.748;2022-07-04T07:25:08;1.83;;;1.20;;
32094;SDS011;18608;53.688;10.748;2022-07-04T07:27:35;3.20;;;1.50;;
32094;SDS011;18608;53.688;10.748;2022-07-04T07:30:01;1.50;;;1.40;;
32094;SDS011;18608;53.688;10.748;2022-07-04T07:32:27;3.90;;;1.60;;
32094;SDS011;18608;53.688;10.748;2022-07-04T07:34:52;3.90;;;1.20;;
32094;SDS011;18608;53.688;10.748;2022-07-04T07:37:20;3.80;;;1.40;;
32094;SDS011;18608;53.688;10.748;2022-07-04T07:39:47;1.60;;;1.50;;
32094;SDS011;18608;53.688;10.748;2022-07-04T07:42:13;1.30;;;1.20;;
32094;SDS011;18608;53.688;10.748;2022-07-04T07:44:39;12.80;;;1.67;;
32094;SDS011;18608;53.688;10.748;2022-07-04T07:47:05;2.70;;;1.00;;
32094;SDS011;18608;53.688;10.748;2022-07-04T07:49:32;4.77;;;1.20;;
32094;SDS011;18608;53.688;10.748;2022-07-04T07:51:58;9.37;;;1.53;;
32094;SDS011;18608;53.688;10.748;2022-07-04T07:54:24;2.97;;;1.40;;
32094;SDS011;18608;53.688;10.748;2022-07-04T07:56:50;2.00;;;1.80;;
32094;SDS011;18608;53.688;10.748;2022-07-04T07:59:16;1.77;;;1.00;;
32094;SDS011;18608;53.688;10.748;2022-07-04T08:01:42;1.70;;;1.20;;
32094;SDS011;18608;53.688;10.748;2022-07-04T08:04:08;1.33;;;1.10;;
32094;SDS011;18608;53.688;10.748;2022-07-04T08:06:53;3.60;;;1.33;;
32094;SDS011;18608;53.688;10.748;2022-07-04T08:09:19;4.03;;;2.10;;
32094;SDS011;18608;53.688;10.748;2022-07-04T08:11:45;1.43;;;1.00;;
32094;SDS011;18608;53.688;10.748;2022-07-04T08:14:11;1.63;;;1.30;;
32094;SDS011;18608;53.688;10.748;2022-07-04T08:16:37;3.30;;;1.03;;
32094;SDS011;18608;53.688;10.748;2022-07-04T08:19:03;3.80;;;1.20;;
32094;SDS011;18608;53.688;10.748;2022-07-04T08:21:29;2.13;;;1.00;;
32094;SDS011;18608;53.688;10.748;2022-07-04T08:23:55;3.13;;;1.13;;
32094;SDS011;18608;53.688;10.748;2022-07-04T08:26:21;3.20;;;0.80;;
32094;SDS011;18608;53.688;10.748;2022-07-04T08:28:47;2.07;;;1.20;;
32094;SDS011;18608;53.688;10.748;2022-07-04T08:31:13;3.97;;;1.67;;
32094;SDS011;18608;53.688;10.748;2022-07-04T08:33:39;3.70;;;1.33;;
32094;SDS011;18608;53.688;10.748;2022-07-04T08:36:04;8.67;;;1.20;;
32094;SDS011;18608;53.688;10.748;2022-07-04T08:38:30;2.07;;;1.33;;
32094;SDS011;18608;53.688;10.748;2022-07-04T08:40:57;2.27;;;1.00;;
32094;SDS011;18608;53.688;10.748;2022-07-04T08:43:24;1.60;;;1.00;;
32094;SDS011;18608;53.688;10.748;2022-07-04T08:45:54;1.10;;;0.90;;
32094;SDS011;18608;53.688;10.748;2022-07-04T08:48:24;1.70;;;1.13;;
32094;SDS011;18608;53.688;10.748;2022-07-04T08:50:53;1.20;;;1.10;;
32094;SDS011;18608;53.688;10.748;2022-07-04T08:53:40;1.10;;;1.00;;
32094;SDS011;18608;53.688;10.748;2022-07-04T08:56:16;1.23;;;1.00;;
32094;SDS011;18608;53.688;10.748;2022-07-04T08:59:02;1.23;;;1.00;;
32094;SDS011;18608;53.688;10.748;2022-07-04T09:01:29;3.40;;;1.20;;
32094;SDS011;18608;53.688;10.748;2022-07-04T09:03:55;2.67;;;2.00;;
32094;SDS011;18608;53.688;10.748;2022-07-04T09:06:21;2.13;;;1.17;;
32094;SDS011;18608;53.688;10.748;2022-07-04T09:08:49;10.33;;;1.50;;
32094;SDS011;18608;53.688;10.748;2022-07-04T09:11:14;4.00;;;0.80;;
32094;SDS011;18608;53.688;10.748;2022-07-04T09:13:40;7.50;;;1.20;;
32094;SDS011;18608;53.688;10.748;2022-07-04T09:16:06;2.73;;;1.20;;
32094;SDS011;18608;53.688;10.748;2022-07-04T09:18:32;1.03;;;0.80;;
32094;SDS011;18608;53.688;10.748;2022-07-04T09:21:01;3.30;;;0.87;;
32094;SDS011;18608;53.688;10.748;2022-07-04T09:23:32;1.50;;;1.03;;
32094;SDS011;18608;53.688;10.748;2022-07-04T09:26:13;3.60;;;1.93;;
32094;SDS011;18608;53.688;10.748;2022-07-04T09:28:41;2.77;;;1.10;;
32094;SDS011;18608;53.688;10.748;2022-07-04T09:31:23;3.03;;;1.00;;
32094;SDS011;18608;53.688;10.748;2022-07-04T09:33:53;3.80;;;1.00;;
32094;SDS011;18608;53.688;10.748;2022-07-04T09:36:21;1.80;;;1.00;;
32094;SDS011;18608;53.688;10.748;2022-07-04T09:39:05;6.50;;;1.30;;
32094;SDS011;18608;53.688;10.748;2022-07-04T09:44:18;5.30;;;2.27;;
32094;SDS011;18608;53.688;10.748;2022-07-04T09:46:44;2.60;;;1.10;;
32094;SDS011;18608;53.688;10.748;2022-07-04T09:49:10;1.30;;;1.20;;
32094;SDS011;18608;53.688;10.748;2022-07-04T09:51:37;3.17;;;0.97;;
32094;SDS011;18608;53.688;10.748;2022-07-04T09:56:54;2.77;;;1.40;;
32094;SDS011;18608;53.688;10.748;2022-07-04T09:59:22;7.80;;;1.20;;
32094;SDS011;18608;53.688;10.748;2022-07-04T10:01:49;1.83;;;1.10;;
32094;SDS011;18608;53.688;10.748;2022-07-04T10:04:16;2.60;;;1.57;;
32094;SDS011;18608;53.688;10.748;2022-07-04T10:06:43;1.10;;;0.97;;
32094;SDS011;18608;53.688;10.748;2022-07-04T10:09:11;4.63;;;0.80;;
32094;SDS011;18608;53.688;10.748;2022-07-04T10:11:39;3.03;;;1.27;;
32094;SDS011;18608;53.688;10.748;2022-07-04T10:14:06;1.63;;;1.10;;
32094;SDS011;18608;53.688;10.748;2022-07-04T10:16:34;3.27;;;0.90;;
32094;SDS011;18608;53.688;10.748;2022-07-04T10:19:01;4.10;;;0.97;;
32094;SDS011;18608;53.688;10.748;2022-07-04T10:21:28;6.33;;;1.03;;
32094;SDS011;18608;53.688;10.748;2022-07-04T10:23:55;4.70;;;0.80;;
32094;SDS011;18608;53.688;10.748;2022-07-04T10:26:21;3.43;;;0.87;;
32094;SDS011;18608;53.688;10.748;2022-07-04T10:28:48;2.43;;;0.83;;
32094;SDS011;18608;53.688;10.748;2022-07-04T10:31:16;2.70;;;1.00;;
32094;SDS011;18608;53.688;10.748;2022-07-04T10:33:46;4.60;;;1.40;;
32094;SDS011;18608;53.688;10.748;2022-07-04T10:36:16;4.30;;;0.80;;
32094;SDS011;18608;53.688;10.748;2022-07-04T10:38:48;4.43;;;1.10;;
32094;SDS011;18608;53.688;10.748;2022-07-04T10:41:15;2.40;;;0.90;;
32094;SDS011;18608;53.688;10.748;2022-07-04T10:48:49;2.10;;;0.90;;
32094;SDS011;18608;53.688;10.748;2022-07-04T10:56:35;3.47;;;1.00;;
32094;SDS011;18608;53.688;10.748;2022-07-04T10:59:16;3.10;;;1.07;;
32094;SDS011;18608;53.688;10.748;2022-07-04T11:01:50;1.47;;;1.20;;
32094;SDS011;18608;53.688;10.748;2022-07-04T11:07:18;2.83;;;0.90;;
32094;SDS011;18608;53.688;10.748;2022-07-04T11:09:45;2.80;;;1.03;;
32094;SDS011;18608;53.688;10.748;2022-07-04T11:12:12;1.27;;;0.97;;
32094;SDS011;18608;53.688;10.748;2022-07-04T11:14:43;1.20;;;1.10;;
32094;SDS011;18608;53.688;10.748;2022-07-04T11:17:28;1.70;;;0.80;;
32094;SDS011;18608;53.688;10.748;2022-07-04T11:20:02;1.43;;;0.90;;
32094;SDS011;18608;53.688;10.748;2022-07-04T11:22:29;3.60;;;1.03;;
32094;SDS011;18608;53.688;10.748;2022-07-04T11:24:55;3.10;;;1.17;;
32094;SDS011;18608;53.688;10.748;2022-07-04T11:27:22;1.90;;;0.83;;
32094;SDS011;18608;53.688;10.748;2022-07-04T11:29:54;2.30;;;1.17;;
32094;SDS011;18608;53.688;10.748;2022-07-04T11:32:21;1.10;;;1.00;;
32094;SDS011;18608;53.688;10.748;2022-07-04T11:34:56;4.30;;;1.10;;
32094;SDS011;18608;53.688;10.748;2022-07-04T11:37:22;2.30;;;1.03;;
32094;SDS011;18608;53.688;10.748;2022-07-04T11:39:52;2.87;;;0.90;;
32094;SDS011;18608;53.688;10.748;2022-07-04T11:42:38;2.00;;;0.80;;
32094;SDS011;18608;53.688;10.748;2022-07-04T11:45:23;3.00;;;1.17;;
32094;SDS011;18608;53.688;10.748;2022-07-04T11:47:49;0.87;;;0.87;;
32094;SDS011;18608;53.688;10.748;2022-07-04T11:50:15;1.33;;;0.90;;
32094;SDS011;18608;53.688;10.748;2022-07-04T11:52:47;2.30;;;1.10;;
32094;SDS011;18608;53.688;10.748;2022-07-04T11:55:17;1.23;;;1.10;;
32094;SDS011;18608;53.688;10.748;2022-07-04T11:57:46;3.33;;;1.10;;
32094;SDS011;18608;53.688;10.748;2022-07-04T12:00:17;1.00;;;0.90;;
32094;SDS011;18608;53.688;10.748;2022-07-04T12:02:44;3.07;;;1.30;;
32094;SDS011;18608;53.688;10.748;2022-07-04T12:05:12;3.50;;;1.00;;
32094;SDS011;18608;53.688;10.748;2022-07-04T12:07:39;1.77;;;1.10;;
32094;SDS011;18608;53.688;10.748;2022-07-04T12:10:08;0.90;;;0.90;;
32094;SDS011;18608;53.688;10.748;2022-07-04T12:12:56;1.20;;;1.10;;
32094;SDS011;18608;53.688;10.748;2022-07-04T12:15:38;0.90;;;0.90;;
32094;SDS011;18608;53.688;10.748;2022-07-04T12:18:14;1.33;;;0.80;;
32094;SDS011;18608;53.688;10.748;2022-07-04T12:20:40;2.20;;;1.13;;
32094;SDS011;18608;53.688;10.748;2022-07-04T12:23:06;1.37;;;1.10;;
32094;SDS011;18608;53.688;10.748;2022-07-04T12:25:35;6.13;;;1.00;;
32094;SDS011;18608;53.688;10.748;2022-07-04T12:30:32;1.53;;;1.27;;
32094;SDS011;18608;53.688;10.748;2022-07-04T12:33:09;1.03;;;1.03;;
32094;SDS011;18608;53.688;10.748;2022-07-04T12:38:22;2.70;;;1.13;;
32094;SDS011;18608;53.688;10.748;2022-07-04T12:43:43;2.50;;;0.80;;
32094;SDS011;18608;53.688;10.748;2022-07-04T12:46:15;2.03;;;1.30;;
32094;SDS011;18608;53.688;10.748;2022-07-04T12:48:58;2.90;;;1.20;;
32094;SDS011;18608;53.688;10.748;2022-07-04T12:53:51;1.57;;;1.13;;
32094;SDS011;18608;53.688;10.748;2022-07-04T12:59:07;1.73;;;0.90;;
32094;SDS011;18608;53.688;10.748;2022-07-04T13:01:34;2.30;;;0.97;;
32094;SDS011;18608;53.688;10.748;2022-07-04T13:04:02;1.83;;;1.20;;
32094;SDS011;18608;53.688;10.748;2022-07-04T13:06:28;2.30;;;0.80;;
32094;SDS011;18608;53.688;10.748;2022-07-04T13:08:54;6.07;;;1.33;;
32094;SDS011;18608;53.688;10.748;2022-07-04T13:11:21;1.10;;;1.10;;
32094;SDS011;18608;53.688;10.748;2022-07-04T13:14:06;3.17;;;0.93;;
32094;SDS011;18608;53.688;10.748;2022-07-04T13:16:32;0.90;;;0.87;;
32094;SDS011;18608;53.688;10.748;2022-07-04T13:18:58;1.50;;;1.00;;
32094;SDS011;18608;53.688;10.748;2022-07-04T13:21:24;2.67;;;0.93;;
32094;SDS011;18608;53.688;10.748;2022-07-04T13:23:50;0.80;;;0.80;;
32094;SDS011;18608;53.688;10.748;2022-07-04T13:26:16;4.10;;;1.10;;
32094;SDS011;18608;53.688;10.748;2022-07-04T13:28:42;2.50;;;1.13;;
32094;SDS011;18608;53.688;10.748;2022-07-04T13:31:08;1.23;;;1.07;;
32094;SDS011;18608;53.688;10.748;2022-07-04T13:33:34;2.17;;;0.80;;
32094;SDS011;18608;53.688;10.748;2022-07-04T13:36:00;3.10;;;0.90;;
32094;SDS011;18608;53.688;10.748;2022-07-04T13:38:26;2.20;;;1.53;;
32094;SDS011;18608;53.688;10.748;2022-07-04T13:40:52;1.20;;;0.87;;
32094;SDS011;18608;53.688;10.748;2022-07-04T13:43:20;6.47;;;1.00;;
32094;SDS011;18608;53.688;10.748;2022-07-04T13:45:46;4.20;;;1.30;;
32094;SDS011;18608;53.688;10.748;2022-07-04T13:48:14;2.13;;;1.13;;
32094;SDS011;18608;53.688;10.748;2022-07-04T13:50:40;1.43;;;0.90;;
32094;SDS011;18608;53.688;10.748;2022-07-04T13:53:06;1.17;;;1.07;;
32094;SDS011;18608;53.688;10.748;2022-07-04T13:55:34;1.67;;;1.07;;
32094;SDS011;18608;53.688;10.748;2022-07-04T13:58:03;1.67;;;0.80;;
32094;SDS011;18608;53.688;10.748;2022-07-04T14:00:30;0.80;;;0.80;;
32094;SDS011;18608;53.688;10.748;2022-07-04T14:02:56;1.67;;;1.23;;
32094;SDS011;18608;53.688;10.748;2022-07-04T14:05:22;3.80;;;1.20;;
32094;SDS011;18608;53.688;10.748;2022-07-04T14:07:52;3.10;;;1.20;;
32094;SDS011;18608;53.688;10.748;2022-07-04T14:10:18;4.47;;;0.97;;
32094;SDS011;18608;53.688;10.748;2022-07-04T14:12:44;2.97;;;1.47;;
32094;SDS011;18608;53.688;10.748;2022-07-04T14:15:10;3.87;;;1.47;;
32094;SDS011;18608;53.688;10.748;2022-07-04T14:17:37;6.30;;;1.40;;
32094;SDS011;18608;53.688;10.748;2022-07-04T14:20:03;9.10;;;1.10;;
32094;SDS011;18608;53.688;10.748;2022-07-04T14:22:31;1.83;;;1.00;;
32094;SDS011;18608;53.688;10.748;2022-07-04T14:24:57;4.03;;;1.00;;
32094;SDS011;18608;53.688;10.748;2022-07-04T14:27:23;0.90;;;0.90;;
32094;SDS011;18608;53.688;10.748;2022-07-04T14:29:49;1.30;;;1.20;;
32094;SDS011;18608;53.688;10.748;2022-07-04T14:32:15;1.10;;;1.00;;
32094;SDS011;18608;53.688;10.748;2022-07-04T14:34:41;2.00;;;0.90;;
32094;SDS011;18608;53.688;10.748;2022-07-04T14:37:07;5.00;;;1.43;;
32094;SDS011;18608;53.688;10.748;2022-07-04T14:39:33;4.33;;;1.40;;
32094;SDS011;18608;53.688;10.748;2022-07-04T14:41:59;2.17;;;1.40;;
32094;SDS011;18608;53.688;10.748;2022-07-04T14:44:25;1.97;;;1.37;;
32094;SDS011;18608;53.688;10.748;2022-07-04T14:46:51;2.40;;;1.13;;
32094;SDS011;18608;53.688;10.748;2022-07-04T14:49:17;1.20;;;1.10;;
32094;SDS011;18608;53.688;10.748;2022-07-04T14:51:43;2.43;;;1.17;;
32094;SDS011;18608;53.688;10.748;2022-07-04T14:54:09;7.67;;;1.20;;
32094;SDS011;18608;53.688;10.748;2022-07-04T14:56:35;5.73;;;1.53;;
32094;SDS011;18608;53.688;10.748;2022-07-04T14:59:02;1.43;;;1.03;;
32094;SDS011;18608;53.688;10.748;2022-07-04T15:01:28;5.33;;;1.00;;
32094;SDS011;18608;53.688;10.748;2022-07-04T15:03:54;2.30;;;1.30;;